BJC weather

Rocky Mountain Metropolitan Airport
Denver, Colorado, United States

Public forecast

Using degrees Fahrenheit for public forecast. Weather courtesy of forecast.io.

Current aviation weather report (METAR) for Rocky Mountain Metropolitan Airport

Retrieved 2019/11/13 17:46 UTC (1 hour ago):

KBJC 131746Z 05006KT 10SM SCT140 BKN200 13/M07 A3005

Aviation forecast (TAF) for Rocky Mountain Metropolitan Airport

Retrieved 2019/11/13 18:24 UTC (36 minutes ago):

TAF KBJC 131722Z 1318/1418 05012KT P6SM SCT090 BKN200 FM132300 08010KT P6SM SCT090 SCT140 FM140100 02010KT P6SM BKN100 FM140400 VRB06KT P6SM SCT060 BKN100 FM141000 29006KT P6SM SCT100